sensor_id;sensor_type;location;lat;lon;timestamp;temperature;humidity
6758;DHT22;3416;53.074;8.822;2024-03-17T00:57:19;5.20;99.90
6758;DHT22;3416;53.074;8.822;2024-03-17T00:59:46;5.20;99.90
6758;DHT22;3416;53.074;8.822;2024-03-17T01:02:14;5.20;99.90
6758;DHT22;3416;53.074;8.822;2024-03-17T01:04:45;5.20;99.90
6758;DHT22;3416;53.074;8.822;2024-03-17T01:08:00;5.10;99.90
6758;DHT22;3416;53.074;8.822;2024-03-17T01:10:38;5.10;99.90
6758;DHT22;3416;53.074;8.822;2024-03-17T01:13:07;5.10;99.90
6758;DHT22;3416;53.074;8.822;2024-03-17T01:15:36;5.20;99.90
6758;DHT22;3416;53.074;8.822;2024-03-17T01:18:03;5.10;99.90
6758;DHT22;3416;53.074;8.822;2024-03-17T01:20:36;5.10;99.90
6758;DHT22;3416;53.074;8.822;2024-03-17T01:23:04;5.10;99.90
6758;DHT22;3416;53.074;8.822;2024-03-17T01:25:47;5.20;99.90
6758;DHT22;3416;53.074;8.822;2024-03-17T01:31:51;5.10;99.90
6758;DHT22;3416;53.074;8.822;2024-03-17T01:34:19;5.10;99.90
6758;DHT22;3416;53.074;8.822;2024-03-17T01:36:53;5.10;99.90
6758;DHT22;3416;53.074;8.822;2024-03-17T01:39:22;5.10;99.90
6758;DHT22;3416;53.074;8.822;2024-03-17T01:41:48;5.10;99.90
6758;DHT22;3416;53.074;8.822;2024-03-17T01:44:23;5.10;99.90
6758;DHT22;3416;53.074;8.822;2024-03-17T01:47:22;5.10;99.90
6758;DHT22;3416;53.074;8.822;2024-03-17T01:49:55;5.10;99.90
6758;DHT22;3416;53.074;8.822;2024-03-17T01:52:24;5.10;99.90
6758;DHT22;3416;53.074;8.822;2024-03-17T01:54:51;5.10;99.90
6758;DHT22;3416;53.074;8.822;2024-03-17T01:57:20;5.10;99.90
6758;DHT22;3416;53.074;8.822;2024-03-17T02:00:12;5.20;99.90
6758;DHT22;3416;53.074;8.822;2024-03-17T02:03:14;5.20;99.90
6758;DHT22;3416;53.074;8.822;2024-03-17T02:05:42;5.10;99.90
6758;DHT22;3416;53.074;8.822;2024-03-17T02:08:10;5.20;99.90
6758;DHT22;3416;53.074;8.822;2024-03-17T02:10:42;5.10;99.90
6758;DHT22;3416;53.074;8.822;2024-03-17T02:13:14;5.10;99.90
6758;DHT22;3416;53.074;8.822;2024-03-17T02:15:42;5.00;99.90
6758;DHT22;3416;53.074;8.822;2024-03-17T02:18:08;5.00;99.90
6758;DHT22;3416;53.074;8.822;2024-03-17T02:20:37;5.00;99.90
6758;DHT22;3416;53.074;8.822;2024-03-17T02:23:21;5.10;99.90
6758;DHT22;3416;53.074;8.822;2024-03-17T02:25:48;5.10;99.90
6758;DHT22;3416;53.074;8.822;2024-03-17T02:28:14;5.00;99.90
6758;DHT22;3416;53.074;8.822;2024-03-17T02:30:41;5.00;99.90
6758;DHT22;3416;53.074;8.822;2024-03-17T02:33:07;5.00;99.90
6758;DHT22;3416;53.074;8.822;2024-03-17T02:35:34;5.00;99.90
6758;DHT22;3416;53.074;8.822;2024-03-17T02:38:00;5.00;99.90
6758;DHT22;3416;53.074;8.822;2024-03-17T02:40:29;5.00;99.90
6758;DHT22;3416;53.074;8.822;2024-03-17T02:42:55;4.90;99.90
6758;DHT22;3416;53.074;8.822;2024-03-17T02:45:22;4.90;99.90
6758;DHT22;3416;53.074;8.822;2024-03-17T02:47:49;4.90;99.90
6758;DHT22;3416;53.074;8.822;2024-03-17T02:50:16;4.90;99.90
6758;DHT22;3416;53.074;8.822;2024-03-17T02:52:44;4.90;99.90
6758;DHT22;3416;53.074;8.822;2024-03-17T02:55:11;5.10;99.90
6758;DHT22;3416;53.074;8.822;2024-03-17T02:57:39;5.00;99.90
6758;DHT22;3416;53.074;8.822;2024-03-17T03:00:07;5.10;99.90
6758;DHT22;3416;53.074;8.822;2024-03-17T03:02:38;5.00;99.90
6758;DHT22;3416;53.074;8.822;2024-03-17T03:05:06;5.20;99.90
6758;DHT22;3416;53.074;8.822;2024-03-17T03:07:34;5.10;99.90
6758;DHT22;3416;53.074;8.822;2024-03-17T03:10:01;5.10;99.90
6758;DHT22;3416;53.074;8.822;2024-03-17T03:12:28;5.10;99.90
6758;DHT22;3416;53.074;8.822;2024-03-17T03:14:56;5.10;99.90
6758;DHT22;3416;53.074;8.822;2024-03-17T03:17:23;5.10;99.90
6758;DHT22;3416;53.074;8.822;2024-03-17T03:19:50;5.10;99.90
6758;DHT22;3416;53.074;8.822;2024-03-17T03:22:17;5.20;99.90
6758;DHT22;3416;53.074;8.822;2024-03-17T03:24:47;5.20;99.90
6758;DHT22;3416;53.074;8.822;2024-03-17T03:27:14;5.10;99.90
6758;DHT22;3416;53.074;8.822;2024-03-17T03:29:41;5.10;99.90
6758;DHT22;3416;53.074;8.822;2024-03-17T03:32:09;5.10;99.90
6758;DHT22;3416;53.074;8.822;2024-03-17T03:34:36;5.10;99.90
6758;DHT22;3416;53.074;8.822;2024-03-17T03:37:04;5.20;99.90
6758;DHT22;3416;53.074;8.822;2024-03-17T03:39:33;5.20;99.90
6758;DHT22;3416;53.074;8.822;2024-03-17T03:42:02;5.20;99.90
6758;DHT22;3416;53.074;8.822;2024-03-17T03:44:28;5.10;99.90
6758;DHT22;3416;53.074;8.822;2024-03-17T03:46:55;5.20;99.90
6758;DHT22;3416;53.074;8.822;2024-03-17T03:49:25;5.20;99.90
6758;DHT22;3416;53.074;8.822;2024-03-17T03:51:52;5.20;99.90
6758;DHT22;3416;53.074;8.822;2024-03-17T03:54:19;5.20;99.90
6758;DHT22;3416;53.074;8.822;2024-03-17T03:56:46;5.20;99.90
6758;DHT22;3416;53.074;8.822;2024-03-17T03:59:13;5.30;99.90
6758;DHT22;3416;53.074;8.822;2024-03-17T04:01:40;5.30;99.90
6758;DHT22;3416;53.074;8.822;2024-03-17T04:04:07;5.30;99.90
6758;DHT22;3416;53.074;8.822;2024-03-17T04:06:36;5.50;99.90
6758;DHT22;3416;53.074;8.822;2024-03-17T04:09:03;5.40;99.90
6758;DHT22;3416;53.074;8.822;2024-03-17T04:11:32;5.50;99.90
6758;DHT22;3416;53.074;8.822;2024-03-17T04:13:59;5.50;99.90
6758;DHT22;3416;53.074;8.822;2024-03-17T04:16:28;5.40;99.90
6758;DHT22;3416;53.074;8.822;2024-03-17T04:18:57;5.50;99.90
6758;DHT22;3416;53.074;8.822;2024-03-17T04:21:24;5.50;99.90
6758;DHT22;3416;53.074;8.822;2024-03-17T04:23:52;5.60;99.90
6758;DHT22;3416;53.074;8.822;2024-03-17T04:26:19;5.50;99.90
6758;DHT22;3416;53.074;8.822;2024-03-17T04:28:46;5.50;99.90
6758;DHT22;3416;53.074;8.822;2024-03-17T04:31:13;5.50;99.90
6758;DHT22;3416;53.074;8.822;2024-03-17T04:33:41;5.50;99.90
6758;DHT22;3416;53.074;8.822;2024-03-17T04:36:08;5.60;99.90
6758;DHT22;3416;53.074;8.822;2024-03-17T04:38:35;5.50;99.90
6758;DHT22;3416;53.074;8.822;2024-03-17T04:41:04;5.50;99.90
6758;DHT22;3416;53.074;8.822;2024-03-17T04:43:33;5.50;99.90
6758;DHT22;3416;53.074;8.822;2024-03-17T04:46:02;5.50;99.90
6758;DHT22;3416;53.074;8.822;2024-03-17T04:48:30;5.50;99.90
6758;DHT22;3416;53.074;8.822;2024-03-17T04:50:57;5.50;99.90
6758;DHT22;3416;53.074;8.822;2024-03-17T04:53:24;5.50;99.90
6758;DHT22;3416;53.074;8.822;2024-03-17T04:56:01;5.50;99.90
6758;DHT22;3416;53.074;8.822;2024-03-17T04:58:31;5.50;99.90
6758;DHT22;3416;53.074;8.822;2024-03-17T05:01:03;5.60;99.90
6758;DHT22;3416;53.074;8.822;2024-03-17T05:03:31;5.60;99.90
6758;DHT22;3416;53.074;8.822;2024-03-17T05:06:01;5.60;99.90
6758;DHT22;3416;53.074;8.822;2024-03-17T05:08:30;5.60;99.90
6758;DHT22;3416;53.074;8.822;2024-03-17T05:10:58;5.60;99.90
6758;DHT22;3416;53.074;8.822;2024-03-17T05:13:25;5.70;99.90
6758;DHT22;3416;53.074;8.822;2024-03-17T05:15:54;5.60;99.90
6758;DHT22;3416;53.074;8.822;2024-03-17T05:18:21;5.60;99.90
6758;DHT22;3416;53.074;8.822;2024-03-17T05:20:57;5.60;99.90
6758;DHT22;3416;53.074;8.822;2024-03-17T05:23:25;5.50;99.90
6758;DHT22;3416;53.074;8.822;2024-03-17T05:25:53;5.50;99.90
6758;DHT22;3416;53.074;8.822;2024-03-17T05:28:20;5.50;99.90
6758;DHT22;3416;53.074;8.822;2024-03-17T05:30:47;5.40;99.90
6758;DHT22;3416;53.074;8.822;2024-03-17T05:33:17;5.40;99.90
6758;DHT22;3416;53.074;8.822;2024-03-17T05:35:49;5.50;99.90
6758;DHT22;3416;53.074;8.822;2024-03-17T05:38:18;5.40;99.90
6758;DHT22;3416;53.074;8.822;2024-03-17T05:40:53;5.50;99.90
6758;DHT22;3416;53.074;8.822;2024-03-17T05:43:20;5.40;99.90
6758;DHT22;3416;53.074;8.822;2024-03-17T05:45:47;5.30;99.90
6758;DHT22;3416;53.074;8.822;2024-03-17T05:48:14;5.40;99.90
6758;DHT22;3416;53.074;8.822;2024-03-17T05:50:42;5.20;99.90
6758;DHT22;3416;53.074;8.822;2024-03-17T05:53:09;5.30;99.90
6758;DHT22;3416;53.074;8.822;2024-03-17T05:55:37;5.30;99.90
6758;DHT22;3416;53.074;8.822;2024-03-17T05:58:04;5.30;99.90
6758;DHT22;3416;53.074;8.822;2024-03-17T06:00:31;5.40;99.90
6758;DHT22;3416;53.074;8.822;2024-03-17T06:02:58;5.60;99.90
6758;DHT22;3416;53.074;8.822;2024-03-17T06:05:25;5.60;99.90
6758;DHT22;3416;53.074;8.822;2024-03-17T06:07:54;5.70;99.90
6758;DHT22;3416;53.074;8.822;2024-03-17T06:10:20;5.70;99.90
6758;DHT22;3416;53.074;8.822;2024-03-17T06:12:50;5.70;99.90
6758;DHT22;3416;53.074;8.822;2024-03-17T06:15:17;5.70;99.90
6758;DHT22;3416;53.074;8.822;2024-03-17T06:17:43;5.80;99.90
6758;DHT22;3416;53.074;8.822;2024-03-17T06:20:11;6.00;99.90
6758;DHT22;3416;53.074;8.822;2024-03-17T06:22:39;5.90;99.90
6758;DHT22;3416;53.074;8.822;2024-03-17T06:25:10;5.90;99.90
6758;DHT22;3416;53.074;8.822;2024-03-17T06:27:39;5.80;99.90
6758;DHT22;3416;53.074;8.822;2024-03-17T06:30:11;5.90;99.90
6758;DHT22;3416;53.074;8.822;2024-03-17T06:32:40;5.90;99.90
6758;DHT22;3416;53.074;8.822;2024-03-17T06:35:08;6.00;99.90
6758;DHT22;3416;53.074;8.822;2024-03-17T06:37:35;6.20;99.90
6758;DHT22;3416;53.074;8.822;2024-03-17T06:40:13;6.20;99.90
6758;DHT22;3416;53.074;8.822;2024-03-17T06:42:40;6.50;99.90
6758;DHT22;3416;53.074;8.822;2024-03-17T06:45:24;7.00;99.90
6758;DHT22;3416;53.074;8.822;2024-03-17T06:47:53;7.90;99.90
6758;DHT22;3416;53.074;8.822;2024-03-17T06:50:22;8.50;99.90
6758;DHT22;3416;53.074;8.822;2024-03-17T06:52:51;9.30;99.90
6758;DHT22;3416;53.074;8.822;2024-03-17T06:55:20;10.10;99.90
6758;DHT22;3416;53.074;8.822;2024-03-17T06:57:51;10.80;99.90
6758;DHT22;3416;53.074;8.822;2024-03-17T07:00:22;11.40;99.90
6758;DHT22;3416;53.074;8.822;2024-03-17T07:02:51;12.00;99.90
6758;DHT22;3416;53.074;8.822;2024-03-17T07:05:21;12.90;99.90
6758;DHT22;3416;53.074;8.822;2024-03-17T07:07:49;13.80;99.90
6758;DHT22;3416;53.074;8.822;2024-03-17T07:10:17;13.90;99.90
6758;DHT22;3416;53.074;8.822;2024-03-17T07:12:46;14.10;99.50
6758;DHT22;3416;53.074;8.822;2024-03-17T07:15:13;15.00;99.10
6758;DHT22;3416;53.074;8.822;2024-03-17T07:17:41;15.10;97.30
6758;DHT22;3416;53.074;8.822;2024-03-17T07:20:13;15.50;97.20
6758;DHT22;3416;53.074;8.822;2024-03-17T07:22:44;16.00;95.80
6758;DHT22;3416;53.074;8.822;2024-03-17T07:25:12;15.70;95.50
6758;DHT22;3416;53.074;8.822;2024-03-17T07:27:46;16.10;95.40
6758;DHT22;3416;53.074;8.822;2024-03-17T07:32:41;16.20;94.70
6758;DHT22;3416;53.074;8.822;2024-03-17T07:35:08;16.60;94.60
6758;DHT22;3416;53.074;8.822;2024-03-17T07:37:34;17.10;93.40
6758;DHT22;3416;53.074;8.822;2024-03-17T07:40:04;17.50;92.70
6758;DHT22;3416;53.074;8.822;2024-03-17T07:42:32;17.80;92.10
6758;DHT22;3416;53.074;8.822;2024-03-17T07:45:01;17.40;92.10
6758;DHT22;3416;53.074;8.822;2024-03-17T07:47:27;16.90;92.10
6758;DHT22;3416;53.074;8.822;2024-03-17T07:50:01;16.70;92.80
6758;DHT22;3416;53.074;8.822;2024-03-17T07:52:29;16.30;93.40
6758;DHT22;3416;53.074;8.822;2024-03-17T07:54:58;16.10;93.30
6758;DHT22;3416;53.074;8.822;2024-03-17T07:57:24;16.30;93.70
6758;DHT22;3416;53.074;8.822;2024-03-17T07:59:52;16.60;93.50
6758;DHT22;3416;53.074;8.822;2024-03-17T08:02:22;16.70;93.20
6758;DHT22;3416;53.074;8.822;2024-03-17T08:04:49;16.60;92.80
6758;DHT22;3416;53.074;8.822;2024-03-17T08:07:16;16.90;93.40
6758;DHT22;3416;53.074;8.822;2024-03-17T08:09:43;16.80;93.10
6758;DHT22;3416;53.074;8.822;2024-03-17T08:12:09;17.10;92.70
6758;DHT22;3416;53.074;8.822;2024-03-17T08:14:37;17.30;93.00
6758;DHT22;3416;53.074;8.822;2024-03-17T08:17:04;17.50;92.30
6758;DHT22;3416;53.074;8.822;2024-03-17T08:19:33;17.90;92.10
6758;DHT22;3416;53.074;8.822;2024-03-17T08:22:00;17.90;91.90
6758;DHT22;3416;53.074;8.822;2024-03-17T08:24:27;18.60;91.60
6758;DHT22;3416;53.074;8.822;2024-03-17T08:26:55;18.40;90.90
6758;DHT22;3416;53.074;8.822;2024-03-17T08:29:22;18.80;90.60
6758;DHT22;3416;53.074;8.822;2024-03-17T08:31:51;18.60;90.60
6758;DHT22;3416;53.074;8.822;2024-03-17T08:34:18;19.30;90.20
6758;DHT22;3416;53.074;8.822;2024-03-17T08:36:46;19.40;89.80
6758;DHT22;3416;53.074;8.822;2024-03-17T08:39:13;19.20;88.90
6758;DHT22;3416;53.074;8.822;2024-03-17T08:41:41;19.30;89.70
6758;DHT22;3416;53.074;8.822;2024-03-17T08:44:09;19.10;89.40
6758;DHT22;3416;53.074;8.822;2024-03-17T08:46:37;18.50;89.70
6758;DHT22;3416;53.074;8.822;2024-03-17T08:49:04;17.80;90.50
6758;DHT22;3416;53.074;8.822;2024-03-17T08:51:33;17.10;90.90
6758;DHT22;3416;53.074;8.822;2024-03-17T08:54:01;16.50;92.00
6758;DHT22;3416;53.074;8.822;2024-03-17T08:56:28;16.00;92.70
6758;DHT22;3416;53.074;8.822;2024-03-17T08:58:56;15.40;93.00
6758;DHT22;3416;53.074;8.822;2024-03-17T09:01:23;14.90;93.70
6758;DHT22;3416;53.074;8.822;2024-03-17T09:03:50;14.50;93.80
6758;DHT22;3416;53.074;8.822;2024-03-17T09:06:20;14.00;94.00
6758;DHT22;3416;53.074;8.822;2024-03-17T09:08:47;13.50;94.90
6758;DHT22;3416;53.074;8.822;2024-03-17T09:11:17;13.40;95.70
6758;DHT22;3416;53.074;8.822;2024-03-17T09:13:44;13.40;96.30
6758;DHT22;3416;53.074;8.822;2024-03-17T09:16:11;13.80;95.90
6758;DHT22;3416;53.074;8.822;2024-03-17T09:18:39;14.50;95.10
6758;DHT22;3416;53.074;8.822;2024-03-17T09:21:07;15.00;94.00
6758;DHT22;3416;53.074;8.822;2024-03-17T09:23:36;15.50;93.10
6758;DHT22;3416;53.074;8.822;2024-03-17T09:26:05;15.90;92.50
6758;DHT22;3416;53.074;8.822;2024-03-17T09:28:36;16.20;91.90
6758;DHT22;3416;53.074;8.822;2024-03-17T09:31:03;16.10;92.20
6758;DHT22;3416;53.074;8.822;2024-03-17T09:33:34;16.50;91.30
6758;DHT22;3416;53.074;8.822;2024-03-17T09:36:03;16.00;91.80
6758;DHT22;3416;53.074;8.822;2024-03-17T09:38:31;15.70;92.10
6758;DHT22;3416;53.074;8.822;2024-03-17T09:41:00;15.60;91.70
6758;DHT22;3416;53.074;8.822;2024-03-17T09:43:32;15.30;92.50
6758;DHT22;3416;53.074;8.822;2024-03-17T09:49:15;15.80;91.80
6758;DHT22;3416;53.074;8.822;2024-03-17T09:51:42;14.90;91.80
6758;DHT22;3416;53.074;8.822;2024-03-17T09:54:17;15.10;92.00
6758;DHT22;3416;53.074;8.822;2024-03-17T09:56:45;15.20;91.90
6758;DHT22;3416;53.074;8.822;2024-03-17T09:59:12;15.50;91.80
6758;DHT22;3416;53.074;8.822;2024-03-17T10:01:39;15.80;91.00
6758;DHT22;3416;53.074;8.822;2024-03-17T10:04:05;16.10;90.60
6758;DHT22;3416;53.074;8.822;2024-03-17T10:06:45;15.80;89.30
6758;DHT22;3416;53.074;8.822;2024-03-17T10:09:16;15.90;90.40
6758;DHT22;3416;53.074;8.822;2024-03-17T10:11:47;15.90;90.00
6758;DHT22;3416;53.074;8.822;2024-03-17T10:14:17;16.60;88.30
6758;DHT22;3416;53.074;8.822;2024-03-17T10:16:44;16.90;87.00
6758;DHT22;3416;53.074;8.822;2024-03-17T10:19:12;16.70;86.60
6758;DHT22;3416;53.074;8.822;2024-03-17T10:21:42;16.90;86.90
6758;DHT22;3416;53.074;8.822;2024-03-17T10:24:10;17.10;85.20
6758;DHT22;3416;53.074;8.822;2024-03-17T10:26:44;17.30;84.10
6758;DHT22;3416;53.074;8.822;2024-03-17T10:29:23;17.50;85.10
6758;DHT22;3416;53.074;8.822;2024-03-17T10:31:52;17.40;86.00
6758;DHT22;3416;53.074;8.822;2024-03-17T10:34:20;16.50;86.60
6758;DHT22;3416;53.074;8.822;2024-03-17T10:36:51;15.70;87.80
6758;DHT22;3416;53.074;8.822;2024-03-17T10:39:26;15.80;88.80
6758;DHT22;3416;53.074;8.822;2024-03-17T10:41:59;16.40;89.20
6758;DHT22;3416;53.074;8.822;2024-03-17T10:44:26;16.00;87.80
6758;DHT22;3416;53.074;8.822;2024-03-17T10:46:55;15.70;87.80
6758;DHT22;3416;53.074;8.822;2024-03-17T10:49:28;15.40;89.20
6758;DHT22;3416;53.074;8.822;2024-03-17T10:51:59;14.70;90.20
6758;DHT22;3416;53.074;8.822;2024-03-17T10:54:26;14.00;90.80
6758;DHT22;3416;53.074;8.822;2024-03-17T10:56:56;13.90;91.20
6758;DHT22;3416;53.074;8.822;2024-03-17T10:59:32;13.40;92.10
6758;DHT22;3416;53.074;8.822;2024-03-17T11:02:02;13.00;92.60
6758;DHT22;3416;53.074;8.822;2024-03-17T11:04:29;13.10;92.80
6758;DHT22;3416;53.074;8.822;2024-03-17T11:06:58;13.20;92.80
6758;DHT22;3416;53.074;8.822;2024-03-17T11:09:26;13.40;92.30
6758;DHT22;3416;53.074;8.822;2024-03-17T11:11:54;13.60;92.20
6758;DHT22;3416;53.074;8.822;2024-03-17T11:14:21;13.50;92.20
6758;DHT22;3416;53.074;8.822;2024-03-17T11:16:49;13.60;92.40
6758;DHT22;3416;53.074;8.822;2024-03-17T11:19:17;13.70;92.10
6758;DHT22;3416;53.074;8.822;2024-03-17T11:21:44;13.40;92.20
6758;DHT22;3416;53.074;8.822;2024-03-17T11:24:22;13.30;92.60
6758;DHT22;3416;53.074;8.822;2024-03-17T11:26:50;13.40;92.30
6758;DHT22;3416;53.074;8.822;2024-03-17T11:29:27;13.60;92.60
6758;DHT22;3416;53.074;8.822;2024-03-17T11:31:54;13.40;92.70
6758;DHT22;3416;53.074;8.822;2024-03-17T11:34:32;13.70;92.70
6758;DHT22;3416;53.074;8.822;2024-03-17T11:36:59;13.70;92.10
6758;DHT22;3416;53.074;8.822;2024-03-17T11:39:47;13.60;92.30
6758;DHT22;3416;53.074;8.822;2024-03-17T11:42:15;13.30;92.00
6758;DHT22;3416;53.074;8.822;2024-03-17T11:44:43;13.20;92.40
6758;DHT22;3416;53.074;8.822;2024-03-17T11:47:10;13.10;92.80
6758;DHT22;3416;53.074;8.822;2024-03-17T11:49:38;13.10;93.00
6758;DHT22;3416;53.074;8.822;2024-03-17T11:52:08;13.10;92.80
6758;DHT22;3416;53.074;8.822;2024-03-17T11:54:38;13.10;92.60
6758;DHT22;3416;53.074;8.822;2024-03-17T11:57:07;13.10;92.50
6758;DHT22;3416;53.074;8.822;2024-03-17T11:59:35;13.10;92.60
6758;DHT22;3416;53.074;8.822;2024-03-17T12:02:07;13.20;92.50
6758;DHT22;3416;53.074;8.822;2024-03-17T12:04:40;13.30;92.20
6758;DHT22;3416;53.074;8.822;2024-03-17T12:07:13;13.30;92.10
6758;DHT22;3416;53.074;8.822;2024-03-17T12:09:41;13.20;92.60
6758;DHT22;3416;53.074;8.822;2024-03-17T12:12:11;13.30;92.90
6758;DHT22;3416;53.074;8.822;2024-03-17T12:14:40;13.40;92.60
6758;DHT22;3416;53.074;8.822;2024-03-17T12:17:08;13.50;92.60
6758;DHT22;3416;53.074;8.822;2024-03-17T12:19:36;13.60;92.70
6758;DHT22;3416;53.074;8.822;2024-03-17T12:22:04;13.50;92.50
6758;DHT22;3416;53.074;8.822;2024-03-17T12:24:32;13.30;92.50
6758;DHT22;3416;53.074;8.822;2024-03-17T12:26:59;13.30;92.80
6758;DHT22;3416;53.074;8.822;2024-03-17T12:29:31;13.30;92.20
6758;DHT22;3416;53.074;8.822;2024-03-17T12:31:59;13.40;92.50
6758;DHT22;3416;53.074;8.822;2024-03-17T12:34:30;13.30;92.40
6758;DHT22;3416;53.074;8.822;2024-03-17T12:36:58;13.60;92.20
6758;DHT22;3416;53.074;8.822;2024-03-17T12:39:26;13.50;91.90
6758;DHT22;3416;53.074;8.822;2024-03-17T12:42:02;13.60;92.10
6758;DHT22;3416;53.074;8.822;2024-03-17T12:44:32;13.60;91.70
6758;DHT22;3416;53.074;8.822;2024-03-17T12:47:00;13.70;91.90
6758;DHT22;3416;53.074;8.822;2024-03-17T12:49:28;13.80;92.00
6758;DHT22;3416;53.074;8.822;2024-03-17T12:51:54;13.60;92.30
6758;DHT22;3416;53.074;8.822;2024-03-17T12:54:23;13.30;92.30
6758;DHT22;3416;53.074;8.822;2024-03-17T12:56:51;13.50;92.40
6758;DHT22;3416;53.074;8.822;2024-03-17T12:59:41;13.60;92.00
6758;DHT22;3416;53.074;8.822;2024-03-17T13:02:26;13.40;92.20
6758;DHT22;3416;53.074;8.822;2024-03-17T13:05:10;13.30;92.20
6758;DHT22;3416;53.074;8.822;2024-03-17T13:07:40;13.50;92.20
6758;DHT22;3416;53.074;8.822;2024-03-17T13:10:07;13.40;92.30
6758;DHT22;3416;53.074;8.822;2024-03-17T13:12:35;13.30;92.30
6758;DHT22;3416;53.074;8.822;2024-03-17T13:15:04;13.30;92.50
6758;DHT22;3416;53.074;8.822;2024-03-17T13:17:31;13.10;92.40
6758;DHT22;3416;53.074;8.822;2024-03-17T13:19:59;13.10;92.40
6758;DHT22;3416;53.074;8.822;2024-03-17T13:22:26;13.10;92.50
6758;DHT22;3416;53.074;8.822;2024-03-17T13:24:53;13.00;92.60
6758;DHT22;3416;53.074;8.822;2024-03-17T13:27:20;12.90;92.30
6758;DHT22;3416;53.074;8.822;2024-03-17T13:29:48;13.00;92.30
6758;DHT22;3416;53.074;8.822;2024-03-17T13:32:16;13.00;92.50
6758;DHT22;3416;53.074;8.822;2024-03-17T13:34:44;13.10;92.60
6758;DHT22;3416;53.074;8.822;2024-03-17T13:37:11;13.30;92.70
6758;DHT22;3416;53.074;8.822;2024-03-17T13:39:38;13.30;92.70
6758;DHT22;3416;53.074;8.822;2024-03-17T13:42:05;13.30;92.40
6758;DHT22;3416;53.074;8.822;2024-03-17T13:44:33;13.40;92.40
6758;DHT22;3416;53.074;8.822;2024-03-17T13:47:00;13.30;92.40
6758;DHT22;3416;53.074;8.822;2024-03-17T13:49:30;13.30;92.40
6758;DHT22;3416;53.074;8.822;2024-03-17T13:51:57;13.10;92.40
6758;DHT22;3416;53.074;8.822;2024-03-17T13:54:24;13.10;92.60
6758;DHT22;3416;53.074;8.822;2024-03-17T13:56:51;13.10;92.60
6758;DHT22;3416;53.074;8.822;2024-03-17T13:59:18;13.10;92.60
6758;DHT22;3416;53.074;8.822;2024-03-17T14:01:45;13.10;92.60
6758;DHT22;3416;53.074;8.822;2024-03-17T14:04:16;13.20;92.70
6758;DHT22;3416;53.074;8.822;2024-03-17T14:06:46;13.20;92.70
6758;DHT22;3416;53.074;8.822;2024-03-17T14:09:15;13.10;92.80
6758;DHT22;3416;53.074;8.822;2024-03-17T14:11:43;13.00;92.70
6758;DHT22;3416;53.074;8.822;2024-03-17T14:14:11;12.80;92.70
6758;DHT22;3416;53.074;8.822;2024-03-17T14:16:39;12.90;92.90
6758;DHT22;3416;53.074;8.822;2024-03-17T14:19:08;13.00;92.80
6758;DHT22;3416;53.074;8.822;2024-03-17T14:21:35;13.00;93.00
6758;DHT22;3416;53.074;8.822;2024-03-17T14:24:03;13.00;92.70
6758;DHT22;3416;53.074;8.822;2024-03-17T14:26:33;13.10;92.60
6758;DHT22;3416;53.074;8.822;2024-03-17T14:29:00;13.00;92.40
6758;DHT22;3416;53.074;8.822;2024-03-17T14:31:30;13.10;92.70
6758;DHT22;3416;53.074;8.822;2024-03-17T14:33:58;13.10;92.80
6758;DHT22;3416;53.074;8.822;2024-03-17T14:36:25;13.00;92.60
6758;DHT22;3416;53.074;8.822;2024-03-17T14:38:55;13.00;92.30
6758;DHT22;3416;53.074;8.822;2024-03-17T14:41:23;12.90;92.60
6758;DHT22;3416;53.074;8.822;2024-03-17T14:43:50;12.90;93.00
6758;DHT22;3416;53.074;8.822;2024-03-17T14:46:17;12.90;93.00
6758;DHT22;3416;53.074;8.822;2024-03-17T14:48:44;12.90;92.80
6758;DHT22;3416;53.074;8.822;2024-03-17T14:51:13;12.90;92.60
6758;DHT22;3416;53.074;8.822;2024-03-17T14:53:39;12.90;92.30
6758;DHT22;3416;53.074;8.822;2024-03-17T14:56:14;12.90;92.30
6758;DHT22;3416;53.074;8.822;2024-03-17T14:58:43;12.80;92.50
6758;DHT22;3416;53.074;8.822;2024-03-17T15:01:11;12.80;92.90
6758;DHT22;3416;53.074;8.822;2024-03-17T15:03:39;12.70;92.40
6758;DHT22;3416;53.074;8.822;2024-03-17T15:06:09;12.60;92.80
6758;DHT22;3416;53.074;8.822;2024-03-17T15:08:36;12.60;92.80
6758;DHT22;3416;53.074;8.822;2024-03-17T15:11:03;12.50;93.10
6758;DHT22;3416;53.074;8.822;2024-03-17T15:13:34;12.50;93.20
6758;DHT22;3416;53.074;8.822;2024-03-17T15:16:03;12.50;93.40
6758;DHT22;3416;53.074;8.822;2024-03-17T15:18:31;12.60;93.20
6758;DHT22;3416;53.074;8.822;2024-03-17T15:20:59;12.40;93.00
6758;DHT22;3416;53.074;8.822;2024-03-17T15:23:27;12.40;93.00
6758;DHT22;3416;53.074;8.822;2024-03-17T15:26:01;12.30;93.20
6758;DHT22;3416;53.074;8.822;2024-03-17T15:28:33;12.40;93.00
6758;DHT22;3416;53.074;8.822;2024-03-17T15:31:03;12.40;93.20
6758;DHT22;3416;53.074;8.822;2024-03-17T15:33:31;12.30;93.20
6758;DHT22;3416;53.074;8.822;2024-03-17T15:36:00;12.40;93.20
6758;DHT22;3416;53.074;8.822;2024-03-17T15:38:29;12.30;93.20
6758;DHT22;3416;53.074;8.822;2024-03-17T15:40:57;12.30;93.20
6758;DHT22;3416;53.074;8.822;2024-03-17T15:43:24;12.30;93.00
6758;DHT22;3416;53.074;8.822;2024-03-17T15:45:52;12.00;93.00
6758;DHT22;3416;53.074;8.822;2024-03-17T15:48:21;12.10;93.10
6758;DHT22;3416;53.074;8.822;2024-03-17T15:50:54;12.00;93.20
6758;DHT22;3416;53.074;8.822;2024-03-17T15:53:21;12.00;93.10
6758;DHT22;3416;53.074;8.822;2024-03-17T15:55:59;12.00;92.80
6758;DHT22;3416;53.074;8.822;2024-03-17T15:58:27;11.90;93.00
6758;DHT22;3416;53.074;8.822;2024-03-17T16:00:55;11.90;92.80
6758;DHT22;3416;53.074;8.822;2024-03-17T16:03:28;11.90;92.60
6758;DHT22;3416;53.074;8.822;2024-03-17T16:05:59;11.80;92.90
6758;DHT22;3416;53.074;8.822;2024-03-17T16:08:28;11.80;93.20
6758;DHT22;3416;53.074;8.822;2024-03-17T16:10:57;11.80;92.90
6758;DHT22;3416;53.074;8.822;2024-03-17T16:13:27;11.80;92.90
6758;DHT22;3416;53.074;8.822;2024-03-17T16:15:54;11.80;92.40
6758;DHT22;3416;53.074;8.822;2024-03-17T16:18:24;11.80;92.70
6758;DHT22;3416;53.074;8.822;2024-03-17T16:21:03;11.80;92.60
6758;DHT22;3416;53.074;8.822;2024-03-17T16:23:33;11.80;93.00
6758;DHT22;3416;53.074;8.822;2024-03-17T16:26:03;11.80;93.10
6758;DHT22;3416;53.074;8.822;2024-03-17T16:28:31;11.80;93.10
6758;DHT22;3416;53.074;8.822;2024-03-17T16:30:59;11.80;93.20
6758;DHT22;3416;53.074;8.822;2024-03-17T16:33:28;11.80;93.30
6758;DHT22;3416;53.074;8.822;2024-03-17T16:35:56;11.80;93.50
6758;DHT22;3416;53.074;8.822;2024-03-17T16:38:24;11.80;93.30
6758;DHT22;3416;53.074;8.822;2024-03-17T16:40:52;11.70;93.20
6758;DHT22;3416;53.074;8.822;2024-03-17T16:43:25;11.70;93.20
6758;DHT22;3416;53.074;8.822;2024-03-17T16:46:00;11.70;93.20
6758;DHT22;3416;53.074;8.822;2024-03-17T16:48:31;11.70;93.30
6758;DHT22;3416;53.074;8.822;2024-03-17T16:50:58;11.70;92.60
6758;DHT22;3416;53.074;8.822;2024-03-17T16:53:25;11.60;92.90
6758;DHT22;3416;53.074;8.822;2024-03-17T16:55:54;11.50;92.30
6758;DHT22;3416;53.074;8.822;2024-03-17T16:58:21;11.50;92.30
6758;DHT22;3416;53.074;8.822;2024-03-17T17:00:48;11.50;92.50
6758;DHT22;3416;53.074;8.822;2024-03-17T17:03:16;11.40;92.50
6758;DHT22;3416;53.074;8.822;2024-03-17T17:05:44;11.50;92.60
6758;DHT22;3416;53.074;8.822;2024-03-17T17:08:11;11.50;92.70
6758;DHT22;3416;53.074;8.822;2024-03-17T17:10:39;11.50;92.80
6758;DHT22;3416;53.074;8.822;2024-03-17T17:13:06;11.60;92.80
6758;DHT22;3416;53.074;8.822;2024-03-17T17:15:34;11.50;92.80
6758;DHT22;3416;53.074;8.822;2024-03-17T17:18:01;11.50;93.00
6758;DHT22;3416;53.074;8.822;2024-03-17T17:20:28;11.50;93.10
6758;DHT22;3416;53.074;8.822;2024-03-17T17:23:00;11.50;93.30
6758;DHT22;3416;53.074;8.822;2024-03-17T17:25:28;11.40;93.40